Ellenburg Depot, New York
Current Conditions -  °F | °C
As of 10:53 AM on Sunday 23 Nov 2014 (Local Time) from KPBG Reporting Station
Overcast Overcast  
Wind Chill:   Ceiling: 2000
Heat Index:   Visibility: 10mi
Dew Point:   Wind: 5mph
Humidity: 82%   Direction: 120°ESE
Pressure: 30.04"   Gusts: NA
Location:  44.91°N, 73.8°W
Report Text: KPBG 231553Z AUTO 12004KT 10SM OVC020 07/04 A3004 RMK AO2 SLP176 T00670039
Loading
Personal Weather Stations






























Interactive Weather Map New forecast layout! Learn more

10-Day Weather Forecast

Advertisements
Track Severe Weather on mobile